Time;durP1;ratioP1;P1;durP2;ratioP2;P2;SDS_P1;SDS_P2;PMS_P1;PMS_P2;Temp;Humidity;BMP_temperature;BMP_pressure;BME280_temperature;BME280_humidity;BME280_pressure;Samples;Min_cycle;Max_cycle;Signal;HPM_P1;HPM_P2
2024/03/07 00:00:17;;;;;;;4.10;2.88;;;5.10;99.90;;;;;;4988328;28;20057;-78
2024/03/07 00:02:49;;;;;;;8.20;4.88;;;5.10;99.90;;;;;;4988827;28;20060;-78
2024/03/07 00:05:18;;;;;;;7.78;5.82;;;5.20;1.00;;;;;;4972810;28;20420;-78
2024/03/07 00:07:45;;;;;;;8.13;6.13;;;5.20;99.90;;;;;;4972791;28;20046;-78
2024/03/07 00:10:12;;;;;;;7.55;5.30;;;5.30;1.00;;;;;;4988988;28;20046;-78
2024/03/07 00:12:40;;;;;;;8.23;6.20;;;5.30;99.90;;;;;;4973296;28;20053;-78
2024/03/07 00:15:08;;;;;;;8.23;5.50;;;5.30;99.90;;;;;;4995387;28;20401;-79
2024/03/07 00:17:35;;;;;;;7.55;5.40;;;5.40;99.90;;;;;;4971515;28;20410;-79
2024/03/07 00:20:04;;;;;;;8.07;5.85;;;5.40;1.00;;;;;;4988438;28;20081;-79
2024/03/07 00:22:31;;;;;;;6.60;5.15;;;5.50;40.60;;;;;;4989098;28;20207;-79
2024/03/07 00:24:59;;;;;;;5.97;4.75;;;5.50;99.90;;;;;;4980779;28;20061;-79
2024/03/07 00:27:26;;;;;;;5.43;4.13;;;5.50;99.90;;;;;;4982266;28;20064;-78
2024/03/07 00:29:53;;;;;;;7.00;5.05;;;5.60;99.90;;;;;;4987800;28;20046;-78
2024/03/07 00:32:20;;;;;;;6.30;4.50;;;5.60;99.90;;;;;;4970690;28;20157;-78
2024/03/07 00:34:48;;;;;;;5.97;4.45;;;5.70;99.90;;;;;;4989527;28;20050;-78
2024/03/07 00:37:16;;;;;;;4.45;3.60;;;5.70;99.90;;;;;;4972835;28;20141;-80
2024/03/07 00:39:43;;;;;;;4.60;3.50;;;5.80;99.90;;;;;;4983925;28;20104;-78
2024/03/07 00:42:10;;;;;;;4.47;3.65;;;5.80;99.90;;;;;;4980933;28;20592;-80
2024/03/07 00:44:38;;;;;;;5.75;4.47;;;5.80;99.90;;;;;;5003186;28;20037;-78
2024/03/07 00:47:05;;;;;;;6.00;4.15;;;5.90;99.90;;;;;;5003405;28;20045;-80
2024/03/07 00:49:32;;;;;;;5.07;3.80;;;5.90;99.90;;;;;;4988814;28;20466;-80
2024/03/07 00:52:00;;;;;;;6.20;4.78;;;5.90;99.90;;;;;;4973118;28;20062;-80
2024/03/07 00:54:27;;;;;;;10.70;6.78;;;6.00;99.90;;;;;;4987139;28;20045;-79
2024/03/07 00:56:55;;;;;;;6.40;5.22;;;6.00;99.90;;;;;;4987306;28;20046;-79
2024/03/07 00:59:22;;;;;;;8.98;6.45;;;6.00;99.90;;;;;;5005616;28;20488;-80
2024/03/07 01:01:49;;;;;;;12.13;8.43;;;6.00;1.00;;;;;;4968031;28;20671;-79
2024/03/07 01:04:17;;;;;;;9.10;6.45;;;6.00;1.00;;;;;;4984205;28;20437;-79
2024/03/07 01:06:44;;;;;;;10.00;7.18;;;6.10;1.00;;;;;;4984758;28;20078;-79
2024/03/07 01:09:14;;;;;;;11.10;7.88;;;6.10;1.00;;;;;;4987803;28;20038;-79
2024/03/07 01:11:42;;;;;;;11.55;8.60;;;6.10;1.00;;;;;;5003876;28;20122;-79
2024/03/07 01:14:09;;;;;;;10.70;7.80;;;6.10;1.00;;;;;;4971930;28;20081;-79
2024/03/07 01:16:36;;;;;;;12.00;7.80;;;6.20;18.30;;;;;;4985949;28;20057;-79
2024/03/07 01:19:05;;;;;;;16.65;11.38;;;6.20;5.30;;;;;;4988277;28;20050;-79
2024/03/07 01:21:34;;;;;;;15.40;10.15;;;6.20;1.00;;;;;;4984297;28;20412;-79
2024/03/07 01:24:05;;;;;;;14.65;9.90;;;6.20;35.90;;;;;;5001014;28;20203;-78
2024/03/07 01:26:33;;;;;;;13.70;9.90;;;6.20;54.00;;;;;;4987301;28;20061;-78
2024/03/07 01:29:00;;;;;;;14.15;9.85;;;6.20;46.80;;;;;;4989677;28;20411;-78
2024/03/07 01:31:27;;;;;;;13.43;9.88;;;6.30;29.50;;;;;;4970570;28;20148;-78
2024/03/07 01:33:55;;;;;;;11.32;8.43;;;6.30;26.00;;;;;;5004482;28;20100;-78
2024/03/07 01:36:22;;;;;;;13.93;9.13;;;6.30;99.90;;;;;;4988804;28;20476;-78
2024/03/07 01:38:49;;;;;;;15.00;10.95;;;6.40;40.30;;;;;;5005194;28;20569;-78
2024/03/07 01:41:16;;;;;;;15.18;10.63;;;6.40;1.00;;;;;;4988373;28;20053;-78
2024/03/07 01:43:43;;;;;;;16.73;11.55;;;6.40;79.80;;;;;;4988068;28;20049;-77
2024/03/07 01:46:10;;;;;;;15.27;10.52;;;6.40;4.60;;;;;;4969709;28;20061;-78
2024/03/07 01:48:37;;;;;;;12.02;8.48;;;6.40;49.80;;;;;;4989690;28;20053;-78
2024/03/07 01:51:05;;;;;;;15.68;11.68;;;6.40;34.70;;;;;;4987794;28;20053;-79
2024/03/07 01:53:32;;;;;;;13.90;9.27;;;6.40;1.00;;;;;;4972076;28;20075;-78
2024/03/07 01:56:00;;;;;;;11.40;7.72;;;6.50;1.00;;;;;;4970771;28;20136;-78
2024/03/07 01:58:27;;;;;;;14.15;9.63;;;6.50;1.00;;;;;;5004429;28;20053;-78
2024/03/07 02:00:54;;;;;;;17.17;11.85;;;6.50;1.00;;;;;;4982138;28;20058;-79
2024/03/07 02:03:21;;;;;;;21.00;13.10;;;6.50;99.90;;;;;;4990141;28;20042;-78
2024/03/07 02:05:48;;;;;;;16.70;11.45;;;6.40;99.90;;;;;;4986365;28;20435;-78
2024/03/07 02:08:16;;;;;;;14.23;9.57;;;6.50;1.00;;;;;;4971034;28;20141;-78
2024/03/07 02:10:44;;;;;;;10.98;7.95;;;6.50;1.00;;;;;;5002903;28;20050;-78
2024/03/07 02:13:11;;;;;;;13.80;9.52;;;6.50;1.00;;;;;;5004186;28;20110;-78
2024/03/07 02:15:38;;;;;;;15.40;10.38;;;6.50;1.00;;;;;;4984785;28;20053;-78
2024/03/07 02:18:05;;;;;;;13.13;8.95;;;6.50;1.00;;;;;;4987890;28;20050;-78
2024/03/07 02:20:32;;;;;;;14.32;9.02;;;6.60;1.00;;;;;;5004746;28;20054;-78
2024/03/07 02:22:59;;;;;;;14.95;10.65;;;6.60;1.00;;;;;;4968550;28;20487;-78
2024/03/07 02:25:27;;;;;;;17.42;12.18;;;6.60;99.90;;;;;;5000039;28;20053;-78
2024/03/07 02:27:54;;;;;;;16.67;10.00;;;6.60;99.90;;;;;;5002579;28;20046;-78
2024/03/07 02:30:21;;;;;;;17.10;10.25;;;6.60;1.00;;;;;;4968438;28;20792;-77
2024/03/07 02:32:51;;;;;;;13.48;9.13;;;6.60;99.90;;;;;;4973001;28;20050;-78
2024/03/07 02:35:19;;;;;;;11.23;7.63;;;6.60;99.90;;;;;;4987675;28;20457;-78
2024/03/07 02:37:46;;;;;;;15.07;9.00;;;6.60;99.90;;;;;;5002758;28;20572;-78
2024/03/07 02:40:14;;;;;;;11.95;7.85;;;6.70;1.00;;;;;;5005445;28;20057;-78
2024/03/07 02:42:40;;;;;;;11.75;7.68;;;6.70;1.00;;;;;;4989821;28;20102;-79
2024/03/07 02:45:08;;;;;;;13.93;8.73;;;6.70;1.00;;;;;;4988208;28;20046;-78
2024/03/07 02:47:36;;;;;;;12.23;8.43;;;6.80;99.90;;;;;;5004444;28;20523;-78
2024/03/07 02:50:03;;;;;;;20.42;13.13;;;6.80;99.90;;;;;;5005121;28;20128;-77
2024/03/07 02:52:30;;;;;;;26.08;16.42;;;6.80;99.90;;;;;;4988822;28;20050;-78
2024/03/07 02:54:57;;;;;;;18.25;13.15;;;6.70;99.90;;;;;;4957816;28;20054;-78
2024/03/07 02:57:24;;;;;;;16.13;11.38;;;6.80;99.90;;;;;;4971950;28;20053;-78
2024/03/07 02:59:51;;;;;;;17.98;12.65;;;6.80;99.90;;;;;;4987601;28;20244;-78
2024/03/07 03:02:18;;;;;;;18.38;12.18;;;6.80;99.90;;;;;;5002770;28;20046;-78
2024/03/07 03:04:45;;;;;;;14.60;10.45;;;6.90;99.90;;;;;;4972586;28;20133;-78
2024/03/07 03:07:12;;;;;;;16.77;12.07;;;6.90;99.90;;;;;;4987825;28;20385;-78
2024/03/07 03:09:43;;;;;;;16.55;10.95;;;6.90;99.90;;;;;;4988362;28;20050;-78
2024/03/07 03:12:10;;;;;;;15.30;10.90;;;6.90;99.90;;;;;;4987723;28;20129;-78
2024/03/07 03:14:37;;;;;;;15.02;10.52;;;6.90;60.00;;;;;;5004816;28;20057;-77
2024/03/07 03:17:04;;;;;;;15.40;11.02;;;7.00;14.60;;;;;;4985603;28;20050;-77
2024/03/07 03:19:31;;;;;;;13.38;9.10;;;7.00;1.00;;;;;;4972084;28;20042;-78
2024/03/07 03:21:58;;;;;;;11.65;8.50;;;7.00;24.90;;;;;;4987509;28;20072;-78
2024/03/07 03:24:27;;;;;;;13.13;9.50;;;7.00;1.00;;;;;;4987599;28;20053;-78
2024/03/07 03:26:53;;;;;;;11.68;9.20;;;7.10;99.90;;;;;;4987851;28;20093;-78
2024/03/07 03:29:20;;;;;;;12.85;9.63;;;7.00;99.90;;;;;;5004320;28;20085;-78
2024/03/07 03:31:47;;;;;;;11.63;8.82;;;7.10;99.90;;;;;;4985086;28;20561;-78
2024/03/07 03:34:14;;;;;;;10.25;7.97;;;7.10;99.90;;;;;;5003931;28;20199;-78
2024/03/07 03:36:41;;;;;;;12.50;9.55;;;7.10;1.00;;;;;;4987439;28;20308;-78
2024/03/07 03:39:13;;;;;;;11.98;9.18;;;7.00;99.90;;;;;;4987646;28;20137;-78
2024/03/07 03:41:40;;;;;;;14.30;10.95;;;7.00;99.90;;;;;;4987895;28;20066;-80
2024/03/07 03:44:07;;;;;;;14.75;11.07;;;7.00;99.90;;;;;;4971242;28;20121;-79
2024/03/07 03:46:34;;;;;;;16.25;12.23;;;7.00;99.90;;;;;;4957703;28;20134;-78
2024/03/07 03:49:01;;;;;;;14.98;12.73;;;7.00;99.90;;;;;;4951135;28;20362;-78
2024/03/07 03:51:28;;;;;;;13.90;11.07;;;7.00;99.90;;;;;;4978106;28;20052;-78
2024/03/07 03:53:55;;;;;;;15.07;11.43;;;7.00;99.90;;;;;;4971391;28;20050;-78
2024/03/07 03:56:22;;;;;;;12.85;10.38;;;7.00;1.00;;;;;;4971200;28;20149;-78
2024/03/07 03:58:49;;;;;;;16.40;12.85;;;6.90;1.00;;;;;;4971595;28;20052;-78
2024/03/07 04:01:16;;;;;;;14.38;11.50;;;6.90;99.90;;;;;;4984808;28;20116;-78
2024/03/07 04:03:46;;;;;;;14.77;12.27;;;6.80;1.00;;;;;;4987355;28;20104;-79
2024/03/07 04:06:13;;;;;;;12.68;10.77;;;6.80;43.90;;;;;;5003338;28;20049;-78
2024/03/07 04:08:40;;;;;;;14.68;11.68;;;6.80;99.90;;;;;;4987649;28;20145;-78
2024/03/07 04:11:11;;;;;;;17.20;13.65;;;6.80;99.90;;;;;;4971158;28;20050;-78
2024/03/07 04:13:38;;;;;;;17.00;13.68;;;6.80;99.90;;;;;;4988170;28;20064;-78
2024/03/07 04:16:05;;;;;;;17.60;13.38;;;6.80;58.00;;;;;;4969475;28;20046;-78
2024/03/07 04:18:32;;;;;;;15.13;11.52;;;6.80;1.00;;;;;;4987217;28;20439;-78
2024/03/07 04:20:59;;;;;;;13.10;9.98;;;6.80;1.00;;;;;;4970835;28;20042;-78
2024/03/07 04:23:27;;;;;;;11.27;8.52;;;6.80;1.00;;;;;;4982444;28;20161;-78
2024/03/07 04:25:56;;;;;;;12.05;8.90;;;6.80;1.00;;;;;;4999304;28;20049;-78
2024/03/07 04:28:23;;;;;;;13.35;10.23;;;6.90;99.90;;;;;;5003803;28;20058;-78
2024/03/07 04:30:53;;;;;;;14.75;9.90;;;6.80;99.90;;;;;;5001817;28;20068;-78
2024/03/07 04:33:20;;;;;;;17.73;12.77;;;6.80;99.90;;;;;;4989621;28;20061;-78
2024/03/07 04:35:47;;;;;;;15.05;10.32;;;6.80;99.90;;;;;;4973566;28;20050;-78
2024/03/07 04:38:14;;;;;;;12.95;10.00;;;6.80;99.90;;;;;;4991005;28;20049;-78
2024/03/07 04:40:43;;;;;;;11.25;8.95;;;6.80;99.90;;;;;;4974469;28;20242;-78
2024/03/07 04:43:10;;;;;;;14.27;11.10;;;6.90;92.40;;;;;;5005937;28;20049;-77
2024/03/07 04:45:37;;;;;;;12.55;9.80;;;6.80;1.00;;;;;;4989319;28;20100;-77
2024/03/07 04:48:05;;;;;;;13.93;10.35;;;6.80;1.00;;;;;;4990174;28;20052;-78
2024/03/07 04:50:32;;;;;;;12.45;9.38;;;6.80;1.00;;;;;;4989419;28;20049;-78
2024/03/07 04:52:59;;;;;;;11.80;9.65;;;6.70;1.00;;;;;;5007275;28;20050;-78
2024/03/07 04:55:26;;;;;;;9.55;7.20;;;6.70;1.00;;;;;;4990292;28;20050;-77
2024/03/07 04:57:53;;;;;;;10.27;8.25;;;6.70;1.00;;;;;;5006920;28;20098;-77
2024/03/07 05:00:21;;;;;;;9.75;7.10;;;6.70;1.00;;;;;;4988282;28;20582;-77
2024/03/07 05:02:51;;;;;;;9.10;6.80;;;6.70;1.00;;;;;;5006626;28;20102;-77
2024/03/07 05:05:22;;;;;;;8.52;6.18;;;6.70;1.00;;;;;;4990556;28;20056;-78
2024/03/07 05:07:50;;;;;;;8.50;6.22;;;6.80;1.00;;;;;;4987911;28;20093;-77
2024/03/07 05:10:17;;;;;;;7.80;5.35;;;6.80;1.00;;;;;;4986443;28;20069;-77
2024/03/07 05:12:44;;;;;;;7.05;5.28;;;6.80;1.00;;;;;;4993272;28;20132;-77
2024/03/07 05:15:11;;;;;;;6.78;5.15;;;6.80;1.00;;;;;;4970309;28;20050;-77
2024/03/07 05:17:39;;;;;;;7.55;4.90;;;6.80;1.00;;;;;;4989571;28;20065;-77
2024/03/07 05:20:10;;;;;;;7.88;5.38;;;6.90;1.00;;;;;;5006061;28;20133;-77
2024/03/07 05:22:44;;;;;;;7.22;6.00;;;6.80;99.90;;;;;;4989611;28;20084;-77
2024/03/07 05:25:11;;;;;;;7.88;5.50;;;6.80;99.90;;;;;;4971352;28;20187;-77
2024/03/07 05:27:39;;;;;;;9.00;5.32;;;6.80;1.00;;;;;;4986138;28;20180;-78
2024/03/07 05:30:09;;;;;;;6.07;4.90;;;6.70;1.00;;;;;;4953799;28;20101;-77
2024/03/07 05:32:37;;;;;;;6.57;4.78;;;6.70;69.00;;;;;;4991626;28;20068;-77
2024/03/07 05:35:04;;;;;;;8.30;5.93;;;6.70;99.90;;;;;;4972973;28;20045;-78
2024/03/07 05:37:31;;;;;;;7.90;6.30;;;6.80;99.90;;;;;;4988754;28;20045;-78
2024/03/07 05:39:59;;;;;;;6.53;5.40;;;6.80;1.00;;;;;;4989338;28;20038;-78
2024/03/07 05:42:27;;;;;;;7.00;4.85;;;6.80;12.40;;;;;;4987861;28;20602;-79
2024/03/07 05:44:54;;;;;;;6.50;5.53;;;6.90;99.90;;;;;;5004884;28;20050;-78
2024/03/07 05:47:21;;;;;;;8.65;5.78;;;7.00;99.90;;;;;;5003030;28;20060;-78
2024/03/07 05:49:50;;;;;;;7.03;5.05;;;7.00;99.90;;;;;;5002650;28;20087;-78
2024/03/07 05:52:17;;;;;;;5.50;4.63;;;7.00;99.90;;;;;;5002337;28;20057;-78
2024/03/07 05:54:44;;;;;;;7.78;6.28;;;7.10;99.90;;;;;;4977019;28;20543;-77
2024/03/07 05:57:11;;;;;;;7.45;5.55;;;7.10;99.90;;;;;;4986170;28;20408;-79
2024/03/07 05:59:39;;;;;;;8.40;6.05;;;7.10;99.90;;;;;;4986787;28;20060;-79
2024/03/07 06:02:06;;;;;;;8.18;5.90;;;7.10;99.90;;;;;;4984703;28;20060;-78
2024/03/07 06:04:34;;;;;;;8.00;6.25;;;7.10;99.90;;;;;;4999291;28;20053;-78
2024/03/07 06:07:01;;;;;;;9.20;7.20;;;7.20;99.90;;;;;;4984293;28;20050;-78
2024/03/07 06:09:28;;;;;;;8.77;7.00;;;7.20;99.90;;;;;;5003438;28;20492;-78
2024/03/07 06:11:55;;;;;;;8.27;6.65;;;7.20;1.00;;;;;;4986079;28;20140;-78
2024/03/07 06:14:24;;;;;;;8.48;7.47;;;7.20;1.00;;;;;;4970368;28;20445;-79
2024/03/07 06:16:52;;;;;;;8.90;6.68;;;7.30;99.90;;;;;;5001395;28;20058;-79
2024/03/07 06:19:19;;;;;;;11.32;8.77;;;7.30;99.90;;;;;;4986773;28;20074;-79
2024/03/07 06:21:46;;;;;;;9.27;7.32;;;7.30;99.90;;;;;;4977540;28;20054;-78
2024/03/07 06:24:15;;;;;;;9.35;8.00;;;7.30;99.90;;;;;;4980212;28;20170;-78
2024/03/07 06:26:59;;;;;;;7.82;6.88;;;7.30;99.90;;;;;;4989844;28;20057;-77
2024/03/07 06:29:27;;;;;;;11.13;8.30;;;7.30;99.90;;;;;;4977922;28;20108;-78
2024/03/07 06:31:55;;;;;;;9.23;7.90;;;7.40;99.90;;;;;;4989844;28;20056;-78
2024/03/07 06:34:22;;;;;;;9.20;7.68;;;7.40;99.90;;;;;;4981890;28;20081;-78
2024/03/07 06:36:49;;;;;;;9.52;7.30;;;7.40;93.20;;;;;;4977289;28;20053;-78
2024/03/07 06:39:16;;;;;;;8.55;7.38;;;7.40;99.90;;;;;;4976640;28;20080;-79
2024/03/07 06:41:45;;;;;;;8.98;7.55;;;7.40;13.50;;;;;;4997385;28;20192;-78
2024/03/07 06:44:12;;;;;;;11.00;9.20;;;7.40;1.00;;;;;;4965146;28;20048;-79
2024/03/07 06:46:39;;;;;;;12.32;9.73;;;7.40;1.00;;;;;;5001300;28;20151;-79
2024/03/07 06:49:10;;;;;;;9.35;8.05;;;7.40;99.90;;;;;;4980689;28;20054;-79
2024/03/07 06:51:39;;;;;;;11.38;8.65;;;7.40;1.00;;;;;;4970833;28;20127;-79
2024/03/07 06:54:07;;;;;;;16.13;12.77;;;7.40;99.90;;;;;;5003500;28;20379;-79
2024/03/07 06:56:34;;;;;;;16.15;13.10;;;7.40;99.90;;;;;;4970802;28;20058;-80
2024/03/07 06:59:04;;;;;;;15.98;13.38;;;7.40;99.90;;;;;;4970854;28;20048;-78
2024/03/07 07:01:33;;;;;;;10.68;8.68;;;7.30;99.90;;;;;;4983447;28;20135;-78
2024/03/07 07:04:03;;;;;;;10.05;8.25;;;7.40;1.00;;;;;;4970972;28;20046;-78
2024/03/07 07:06:31;;;;;;;10.75;9.00;;;7.40;1.00;;;;;;4999395;28;20574;-79
2024/03/07 07:08:58;;;;;;;9.73;8.13;;;7.40;99.90;;;;;;5002416;28;20124;-78
2024/03/07 07:11:27;;;;;;;8.57;7.45;;;7.50;99.90;;;;;;4999101;28;20052;-78
2024/03/07 07:13:59;;;;;;;12.10;10.00;;;7.50;99.90;;;;;;4978892;28;20135;-78
2024/03/07 07:16:27;;;;;;;11.90;9.73;;;7.40;29.30;;;;;;4977689;28;20046;-78
2024/03/07 07:18:55;;;;;;;12.45;10.75;;;7.40;1.00;;;;;;4994953;28;20472;-78
2024/03/07 07:21:22;;;;;;;18.40;15.63;;;7.40;1.00;;;;;;4955839;28;20532;-79
2024/03/07 07:23:49;;;;;;;21.48;16.02;;;7.40;99.90;;;;;;4992653;28;20054;-78
2024/03/07 07:26:16;;;;;;;19.42;14.38;;;7.50;99.90;;;;;;4973931;28;20050;-78
2024/03/07 07:28:44;;;;;;;14.68;11.80;;;7.50;99.90;;;;;;4976865;28;20081;-78
2024/03/07 07:31:11;;;;;;;16.23;13.05;;;7.60;99.90;;;;;;4998446;28;20163;-79
2024/03/07 07:33:38;;;;;;;13.48;10.75;;;7.60;1.00;;;;;;4982414;28;20057;-77
2024/03/07 07:36:05;;;;;;;22.33;16.98;;;7.70;1.00;;;;;;4979882;28;20761;-78
2024/03/07 07:38:32;;;;;;;24.95;17.73;;;7.70;99.90;;;;;;4965146;28;20554;-78
2024/03/07 07:41:01;;;;;;;23.38;18.80;;;7.70;99.90;;;;;;4970376;28;20430;-78
2024/03/07 07:43:28;;;;;;;27.95;18.88;;;7.70;99.90;;;;;;4969280;28;20527;-78
2024/03/07 07:46:08;;;;;;;19.48;15.90;;;7.70;99.90;;;;;;4984483;28;20056;-78
2024/03/07 07:48:35;;;;;;;19.35;16.52;;;7.70;99.90;;;;;;4966187;28;20057;-78
2024/03/07 07:51:05;;;;;;;22.85;17.60;;;7.70;99.90;;;;;;4981584;28;20042;-78
2024/03/07 07:53:32;;;;;;;22.10;16.98;;;7.80;99.90;;;;;;4965139;28;20073;-77
2024/03/07 07:55:59;;;;;;;20.75;16.27;;;7.80;99.90;;;;;;4991009;28;20092;-78
2024/03/07 07:58:27;;;;;;;21.08;16.23;;;7.80;99.90;;;;;;4977272;28;20054;-77
2024/03/07 08:00:55;;;;;;;24.27;19.63;;;7.80;99.90;;;;;;4957629;28;20400;-77
2024/03/07 08:03:23;;;;;;;21.38;17.30;;;7.80;99.90;;;;;;4992380;28;20408;-77
2024/03/07 08:05:49;;;;;;;21.83;17.90;;;7.80;99.90;;;;;;4983583;28;20125;-77
2024/03/07 08:08:18;;;;;;;24.23;18.45;;;7.90;99.90;;;;;;4985870;28;20054;-77
2024/03/07 08:10:45;;;;;;;19.45;15.77;;;7.90;99.90;;;;;;5003572;28;20246;-78
2024/03/07 08:13:13;;;;;;;19.15;15.77;;;8.00;99.90;;;;;;4988771;28;20057;-78
2024/03/07 08:15:41;;;;;;;17.55;13.82;;;8.10;99.90;;;;;;4987696;28;20053;-77
2024/03/07 08:18:08;;;;;;;15.70;12.20;;;8.10;99.90;;;;;;4973329;28;20049;-77
2024/03/07 08:20:38;;;;;;;14.50;11.98;;;8.20;81.50;;;;;;5003466;28;20050;-77
2024/03/07 08:23:08;;;;;;;16.73;13.35;;;8.30;88.80;;;;;;4985700;28;20048;-78
2024/03/07 08:25:36;;;;;;;19.77;15.23;;;8.30;25.00;;;;;;5002615;28;20057;-78
2024/03/07 08:28:05;;;;;;;16.77;13.27;;;8.40;1.00;;;;;;5002177;28;20368;-77
2024/03/07 08:30:32;;;;;;;20.23;15.65;;;8.40;1.00;;;;;;4982193;28;20073;-78
2024/03/07 08:33:02;;;;;;;28.30;21.67;;;8.50;1.00;;;;;;4980371;28;20129;-78
2024/03/07 08:35:29;;;;;;;25.63;21.17;;;8.50;1.00;;;;;;4972245;28;20436;-78
2024/03/07 08:37:57;;;;;;;24.77;20.98;;;8.50;99.90;;;;;;4988598;28;20124;-78
2024/03/07 08:40:32;;;;;;;25.52;20.30;;;8.50;99.90;;;;;;5005351;28;20687;-78
2024/03/07 08:42:59;;;;;;;21.17;17.77;;;8.60;1.00;;;;;;5004397;28;20555;-78
2024/03/07 08:45:26;;;;;;;17.65;14.98;;;8.60;1.00;;;;;;4986670;28;20065;-78
2024/03/07 08:47:54;;;;;;;26.27;21.38;;;8.80;99.90;;;;;;4987849;28;20610;-78
2024/03/07 08:50:22;;;;;;;21.20;18.27;;;8.80;99.90;;;;;;4988586;28;20213;-78
2024/03/07 08:52:49;;;;;;;21.50;17.20;;;8.90;99.90;;;;;;4986543;28;20072;-78
2024/03/07 08:55:19;;;;;;;18.73;16.33;;;9.00;99.90;;;;;;4970212;28;20827;-77
2024/03/07 08:57:46;;;;;;;18.35;15.63;;;9.00;99.90;;;;;;5002823;28;20416;-78
2024/03/07 09:00:26;;;;;;;17.05;14.70;;;9.00;99.90;;;;;;4984870;28;20501;-78
2024/03/07 09:02:58;;;;;;;19.73;15.70;;;9.10;99.90;;;;;;4986744;28;20120;-78
2024/03/07 09:05:28;;;;;;;24.63;19.92;;;9.10;99.90;;;;;;4987011;28;20054;-78
2024/03/07 09:07:56;;;;;;;21.23;17.95;;;9.10;99.90;;;;;;5003369;28;20111;-78
2024/03/07 09:10:25;;;;;;;25.13;20.08;;;9.20;99.90;;;;;;4987735;28;20060;-78
2024/03/07 09:12:53;;;;;;;21.42;18.00;;;9.40;99.90;;;;;;5003420;28;20054;-78
2024/03/07 09:15:22;;;;;;;24.65;21.15;;;9.50;99.90;;;;;;5003825;28;20080;-78
2024/03/07 09:17:50;;;;;;;29.10;24.98;;;9.50;99.90;;;;;;4970896;28;20056;-78
2024/03/07 09:20:18;;;;;;;25.10;22.13;;;9.60;99.90;;;;;;4971172;28;20053;-78
2024/03/07 09:22:50;;;;;;;25.63;21.67;;;9.50;99.90;;;;;;5004207;28;20158;-78
2024/03/07 09:25:18;;;;;;;29.02;23.50;;;9.60;99.90;;;;;;4984512;28;20066;-78
2024/03/07 09:27:46;;;;;;;23.98;20.42;;;9.60;99.90;;;;;;5000117;28;20068;-78
2024/03/07 09:30:14;;;;;;;23.88;20.40;;;9.60;99.90;;;;;;4969758;28;20400;-77
2024/03/07 09:32:42;;;;;;;23.35;20.60;;;9.70;99.90;;;;;;5002210;28;20342;-77
2024/03/07 09:35:11;;;;;;;23.92;19.60;;;9.70;99.90;;;;;;4987739;28;20137;-77
2024/03/07 09:37:39;;;;;;;24.50;21.38;;;9.80;99.90;;;;;;4986860;28;20046;-77
2024/03/07 09:40:07;;;;;;;28.92;25.27;;;9.80;99.90;;;;;;4987144;28;20050;-77
2024/03/07 09:42:34;;;;;;;29.55;23.15;;;9.80;99.90;;;;;;4971378;28;20042;-78
2024/03/07 09:45:02;;;;;;;28.23;23.77;;;9.80;99.90;;;;;;4967240;28;20054;-77
2024/03/07 09:47:30;;;;;;;25.30;21.10;;;9.90;99.90;;;;;;4982749;28;20233;-78
2024/03/07 09:49:57;;;;;;;28.80;24.02;;;10.00;99.90;;;;;;4993232;28;20100;-78
2024/03/07 09:52:24;;;;;;;26.02;22.90;;;10.10;99.90;;;;;;4965135;28;20047;-77
2024/03/07 09:54:51;;;;;;;22.58;19.23;;;10.20;99.90;;;;;;4998654;28;20057;-78
2024/03/07 09:57:18;;;;;;;21.17;17.73;;;10.30;99.90;;;;;;4983471;28;20053;-78
2024/03/07 09:59:45;;;;;;;26.27;20.40;;;10.40;99.90;;;;;;4986557;28;20439;-77
2024/03/07 10:02:13;;;;;;;21.20;18.83;;;10.50;99.90;;;;;;4977561;28;20045;-78
2024/03/07 10:04:48;;;;;;;20.73;18.52;;;10.60;99.90;;;;;;4986772;28;20199;-78
2024/03/07 10:07:16;;;;;;;18.33;15.63;;;10.60;99.90;;;;;;4987405;28;20049;-77
2024/03/07 10:09:43;;;;;;;19.80;17.30;;;10.70;99.90;;;;;;5002703;28;20093;-77
2024/03/07 10:12:12;;;;;;;21.02;18.88;;;10.70;99.90;;;;;;5002187;28;20081;-78
2024/03/07 10:14:45;;;;;;;20.63;17.45;;;10.70;99.60;;;;;;5002836;28;20125;-77
2024/03/07 10:17:13;;;;;;;29.23;24.48;;;10.70;99.90;;;;;;4968142;28;20085;-77
2024/03/07 10:19:41;;;;;;;31.33;24.33;;;10.60;99.90;;;;;;4986531;28;20058;-77
2024/03/07 10:22:08;;;;;;;31.77;27.58;;;10.50;99.90;;;;;;4965496;28;20330;-75
2024/03/07 10:24:35;;;;;;;32.55;26.75;;;10.50;99.90;;;;;;4979571;28;20046;-74
2024/03/07 10:27:03;;;;;;;34.92;29.13;;;10.40;99.90;;;;;;4962253;28;20065;-74
2024/03/07 10:29:30;;;;;;;38.35;32.60;;;10.40;99.90;;;;;;4995259;28;20049;-74
2024/03/07 10:31:59;;;;;;;37.95;32.00;;;10.40;99.90;;;;;;4991291;28;20137;-74
2024/03/07 10:34:34;;;;;;;34.40;30.17;;;10.60;99.90;;;;;;4991571;28;20073;-74
2024/03/07 10:37:03;;;;;;;33.30;27.55;;;10.80;99.90;;;;;;4996798;28;20103;-74
2024/03/07 10:39:31;;;;;;;35.28;28.63;;;11.00;97.60;;;;;;4996593;28;20138;-74
2024/03/07 10:41:57;;;;;;;41.72;33.17;;;11.20;90.10;;;;;;4979101;28;20050;-75
2024/03/07 10:44:25;;;;;;;46.95;39.97;;;11.20;76.50;;;;;;4979180;28;20056;-74
2024/03/07 10:46:54;;;;;;;48.67;40.63;;;11.10;70.30;;;;;;4978859;28;20041;-73
2024/03/07 10:49:24;;;;;;;42.30;36.42;;;11.00;72.60;;;;;;4979701;28;20385;-75
2024/03/07 10:52:19;;;;;;;42.13;33.90;;;10.90;71.90;;;;;;4995502;28;20082;-74
2024/03/07 10:55:00;;;;;;;31.77;28.27;;;11.00;68.40;;;;;;4989123;28;20061;-74
2024/03/07 10:57:55;;;;;;;35.55;30.15;;;11.10;66.40;;;;;;4997134;28;20137;-74
2024/03/07 11:00:35;;;;;;;43.60;36.38;;;11.10;58.60;;;;;;4977962;28;20050;-74
2024/03/07 11:03:07;;;;;;;34.63;29.75;;;11.00;60.70;;;;;;4954511;28;20054;-74
2024/03/07 11:05:34;;;;;;;36.00;31.77;;;11.10;50.10;;;;;;4983853;28;20058;-74
2024/03/07 11:08:05;;;;;;;38.55;33.42;;;11.00;45.20;;;;;;4972429;28;20104;-75
2024/03/07 11:10:32;;;;;;;34.22;30.55;;;10.80;41.60;;;;;;4976636;28;20641;-74
2024/03/07 11:12:58;;;;;;;36.08;31.63;;;10.90;46.80;;;;;;4970711;28;20847;-74
2024/03/07 11:15:27;;;;;;;36.50;32.60;;;11.00;42.80;;;;;;4980055;28;20159;-74
2024/03/07 11:17:54;;;;;;;37.58;31.80;;;11.00;36.60;;;;;;4980851;28;20058;-74
2024/03/07 11:20:26;;;;;;;30.13;25.95;;;11.00;36.80;;;;;;4963301;28;20073;-74
2024/03/07 11:22:55;;;;;;;25.85;23.08;;;11.20;23.30;;;;;;4997918;28;20053;-74
2024/03/07 11:25:23;;;;;;;28.10;25.17;;;11.40;24.30;;;;;;4964872;28;20056;-74
2024/03/07 11:27:57;;;;;;;28.33;23.65;;;11.40;17.20;;;;;;4981187;28;20062;-74
2024/03/07 11:30:24;;;;;;;27.13;24.20;;;11.30;17.80;;;;;;4966571;28;20049;-74
2024/03/07 11:32:54;;;;;;;24.98;22.35;;;11.20;20.60;;;;;;4999778;28;20667;-75
2024/03/07 11:35:32;;;;;;;28.02;23.13;;;11.20;25.70;;;;;;4997848;28;20057;-74
2024/03/07 11:37:59;;;;;;;25.35;22.30;;;11.20;27.20;;;;;;4998407;28;20582;-74
2024/03/07 11:40:26;;;;;;;27.13;22.70;;;11.20;31.90;;;;;;5001549;28;20057;-75
2024/03/07 11:42:53;;;;;;;28.65;24.10;;;11.20;31.90;;;;;;5001230;28;20050;-74
2024/03/07 11:45:28;;;;;;;25.80;21.73;;;11.10;33.40;;;;;;5002500;28;20093;-74
2024/03/07 11:48:06;;;;;;;26.15;22.70;;;11.20;35.60;;;;;;5003388;28;20526;-74
2024/03/07 11:50:36;;;;;;;22.77;20.27;;;11.20;34.40;;;;;;4989271;28;20050;-74
2024/03/07 11:53:07;;;;;;;27.50;24.02;;;11.30;35.00;;;;;;5004424;28;20669;-74
2024/03/07 11:55:48;;;;;;;24.33;21.75;;;11.20;27.10;;;;;;5002424;28;20054;-75
2024/03/07 11:58:17;;;;;;;25.20;21.88;;;11.30;29.80;;;;;;4987493;28;20054;-75
2024/03/07 12:00:44;;;;;;;23.73;20.20;;;11.50;28.30;;;;;;4957354;28;20046;-74
2024/03/07 12:03:21;;;;;;;25.33;21.25;;;11.50;24.80;;;;;;4980963;28;20121;-73
2024/03/07 12:05:49;;;;;;;24.20;20.38;;;11.60;20.90;;;;;;4971746;28;20054;-74
2024/03/07 12:08:16;;;;;;;22.95;19.92;;;11.70;15.10;;;;;;4984576;28;20504;-74
2024/03/07 12:10:43;;;;;;;22.80;20.30;;;11.90;13.70;;;;;;4984046;28;20041;-74
2024/03/07 12:13:15;;;;;;;27.37;21.07;;;11.90;4.90;;;;;;4981660;28;20057;-74
2024/03/07 12:15:43;;;;;;;29.42;24.10;;;11.80;1.50;;;;;;4995858;28;20045;-74
2024/03/07 12:18:10;;;;;;;31.15;25.02;;;11.50;1.00;;;;;;4984483;28;20129;-84
2024/03/07 12:20:37;;;;;;;26.10;22.25;;;11.20;2.90;;;;;;4973887;28;20046;-74
2024/03/07 12:23:11;;;;;;;21.48;18.08;;;11.20;3.30;;;;;;4983316;28;20566;-76
2024/03/07 12:25:39;;;;;;;21.33;17.73;;;11.30;6.30;;;;;;4977594;28;20491;-75
2024/03/07 12:28:10;;;;;;;22.23;18.77;;;11.30;1.00;;;;;;4996804;28;20060;-75
2024/03/07 12:30:50;;;;;;;19.05;17.00;;;11.40;1.00;;;;;;4989955;28;20161;-75
2024/03/07 12:33:19;;;;;;;19.85;16.45;;;11.50;3.40;;;;;;4998133;28;20392;-75
2024/03/07 12:35:51;;;;;;;21.02;16.75;;;11.50;1.00;;;;;;5000412;28;20050;-75
2024/03/07 12:38:19;;;;;;;18.23;15.10;;;11.50;1.00;;;;;;4994386;28;20053;-75
2024/03/07 12:40:47;;;;;;;19.55;16.23;;;11.50;1.00;;;;;;4971871;28;20408;-75
2024/03/07 12:43:20;;;;;;;16.98;14.80;;;11.60;1.00;;;;;;5002169;28;20460;-75
2024/03/07 12:45:51;;;;;;;18.90;15.05;;;11.50;1.00;;;;;;4998581;28;20451;-75
2024/03/07 12:48:19;;;;;;;16.98;13.85;;;11.60;1.00;;;;;;4997376;28;20050;-75